createdAt,value
2023-05-12T00:01:44.548Z,101763.66
2023-05-12T00:04:12.595Z,101764.47
2023-05-12T00:06:40.615Z,101759.16
2023-05-12T00:09:09.937Z,101763.59
2023-05-12T00:11:38.030Z,101762.69
2023-05-12T00:14:06.001Z,101763.59
2023-05-12T00:16:34.009Z,101768.88
2023-05-12T00:19:02.017Z,101762.72
2023-05-12T00:21:30.053Z,101763.63
2023-05-12T00:23:57.985Z,101769.78
2023-05-12T00:26:27.618Z,101767.19
2023-05-12T00:28:55.558Z,101766.31
2023-05-12T00:31:23.524Z,101771.63
2023-05-12T00:33:51.442Z,101776.88
2023-05-12T00:36:19.386Z,101765.47
2023-05-12T00:38:47.296Z,101765.50
2023-05-12T00:41:15.214Z,101775.09
2023-05-12T00:43:44.535Z,101770.66
2023-05-12T00:46:12.537Z,101774.16
2023-05-12T00:48:40.580Z,101772.41
2023-05-12T00:51:08.523Z,101776.78
2023-05-12T00:53:48.532Z,101779.44
2023-05-12T00:56:18.448Z,101773.34
2023-05-12T00:58:47.948Z,101778.59
2023-05-12T01:01:16.115Z,101777.72
2023-05-12T01:03:44.075Z,101777.72
2023-05-12T01:06:14.315Z,101779.44
2023-05-12T01:08:42.467Z,101779.44
2023-05-12T01:11:10.461Z,101782.06
2023-05-12T01:13:39.555Z,101787.34
2023-05-12T01:16:09.618Z,101784.78
2023-05-12T01:18:37.785Z,101797.09
2023-05-12T01:21:05.824Z,101798.00
2023-05-12T01:23:36.604Z,101790.97
2023-05-12T01:26:07.004Z,101793.63
2023-05-12T01:28:34.942Z,101786.63
2023-05-12T01:31:02.931Z,101790.97
2023-05-12T01:33:30.921Z,101793.66
2023-05-12T01:35:58.856Z,101802.44
2023-05-12T01:38:29.940Z,101800.66
2023-05-12T01:40:57.825Z,101797.16
2023-05-12T01:43:27.174Z,101800.66
2023-05-12T01:45:55.127Z,101811.19
2023-05-12T01:48:23.027Z,101811.19
2023-05-12T01:50:50.994Z,101802.47
2023-05-12T01:53:19.038Z,101809.50
2023-05-12T01:55:46.979Z,101810.38
2023-05-12T01:58:14.886Z,101811.28
2023-05-12T02:00:44.248Z,101814.81
2023-05-12T02:03:12.307Z,101811.28
2023-05-12T02:05:40.273Z,101812.19
2023-05-12T02:08:08.343Z,101819.19
2023-05-12T02:10:36.313Z,101817.44
2023-05-12T02:13:04.328Z,101820.00
2023-05-12T02:15:32.492Z,101823.50
2023-05-12T02:18:03.730Z,101817.31
2023-05-12T02:20:31.877Z,101830.50
2023-05-12T02:22:59.828Z,101829.59
2023-05-12T02:25:27.773Z,101827.88
2023-05-12T02:27:55.747Z,101826.16
2023-05-12T02:30:23.762Z,101827.06
2023-05-12T02:32:51.735Z,101833.19
2023-05-12T02:35:21.557Z,101828.78
2023-05-12T02:37:49.519Z,101829.69
2023-05-12T02:40:17.982Z,101832.25
2023-05-12T02:42:45.980Z,101834.88
2023-05-12T02:45:14.279Z,101834.03
2023-05-12T02:47:42.336Z,101835.75
2023-05-12T02:50:10.897Z,101837.59
2023-05-12T02:52:40.167Z,101842.84
2023-05-12T02:55:17.606Z,101845.50
2023-05-12T02:57:45.597Z,101849.84
2023-05-12T03:00:17.105Z,101838.50
2023-05-12T03:02:47.823Z,101839.31
2023-05-12T03:05:15.745Z,101842.84
2023-05-12T03:07:51.707Z,101851.66
2023-05-12T03:10:20.084Z,101842.88
2023-05-12T03:12:48.270Z,101849.88
2023-05-12T03:15:16.536Z,101847.25
2023-05-12T03:17:44.505Z,101844.63
2023-05-12T03:20:13.497Z,101853.38
2023-05-12T03:22:41.614Z,101853.28
2023-05-12T03:25:12.807Z,101849.75
2023-05-12T03:27:40.947Z,101850.66
2023-05-12T03:30:10.372Z,101857.69
2023-05-12T03:32:39.412Z,101850.69
2023-05-12T03:35:07.762Z,101856.84
2023-05-12T03:37:35.702Z,101856.03
2023-05-12T03:40:03.930Z,101856.84
2023-05-12T03:42:33.302Z,101857.78
2023-05-12T03:45:01.307Z,101858.69
2023-05-12T03:47:29.434Z,101858.69
2023-05-12T03:49:57.569Z,101862.22
2023-05-12T03:52:25.514Z,101861.34
2023-05-12T03:54:53.694Z,101863.13
2023-05-12T03:57:21.672Z,101859.59
2023-05-12T03:59:50.963Z,101866.63
2023-05-12T04:02:19.085Z,101866.59
2023-05-12T04:04:47.028Z,101869.25
2023-05-12T04:07:14.959Z,101870.16
2023-05-12T04:09:44.088Z,101867.53
2023-05-12T04:12:12.042Z,101874.59
2023-05-12T04:14:43.220Z,101868.41
2023-05-12T04:17:12.879Z,101874.53
2023-05-12T04:19:40.924Z,101871.03
2023-05-12T04:22:08.870Z,101873.66
2023-05-12T04:24:38.237Z,101876.31
2023-05-12T04:27:07.126Z,101885.09
2023-05-12T04:29:35.245Z,101881.59
2023-05-12T04:32:03.260Z,101884.22
2023-05-12T04:34:32.558Z,101894.75
2023-05-12T04:37:00.530Z,101898.25
2023-05-12T04:39:29.023Z,101900.91
2023-05-12T04:41:57.571Z,101900.91
2023-05-12T04:44:25.537Z,101893.84
2023-05-12T04:46:53.477Z,101897.38
2023-05-12T04:49:21.531Z,101900.91
2023-05-12T04:51:50.842Z,101901.75
2023-05-12T04:54:19.030Z,101908.81
2023-05-12T04:56:47.032Z,101913.16
2023-05-12T04:59:16.230Z,101908.78
2023-05-12T05:01:44.415Z,101921.03
2023-05-12T05:04:12.497Z,101919.31
2023-05-12T05:06:40.810Z,101923.69
2023-05-12T05:09:10.145Z,101934.22
2023-05-12T05:11:38.211Z,101933.34
2023-05-12T05:14:06.207Z,101931.59
2023-05-12T05:16:34.302Z,101930.72
2023-05-12T05:19:06.370Z,101941.25
2023-05-12T05:21:37.502Z,101938.63
2023-05-12T05:24:07.158Z,101942.13
2023-05-12T05:26:37.835Z,101946.50
2023-05-12T05:29:06.272Z,101951.75
2023-05-12T05:31:34.441Z,101953.44
2023-05-12T05:34:02.503Z,101956.88
2023-05-12T05:36:31.685Z,101956.06
2023-05-12T05:38:59.702Z,101959.59
2023-05-12T05:41:28.366Z,101965.69
2023-05-12T05:43:57.632Z,101959.59
2023-05-12T05:46:25.565Z,101967.50
2023-05-12T05:48:53.559Z,101969.22
2023-05-12T05:51:21.520Z,101972.75
2023-05-12T05:53:49.456Z,101971.84
2023-05-12T05:56:17.456Z,101977.09
2023-05-12T05:58:45.393Z,101969.13
2023-05-12T06:01:15.439Z,101976.16
2023-05-12T06:03:43.493Z,101982.28
2023-05-12T06:06:11.547Z,101981.38
2023-05-12T06:08:39.586Z,101983.16
2023-05-12T06:11:07.849Z,101988.38
2023-05-12T06:13:36.405Z,101986.66
2023-05-12T06:16:04.335Z,101993.63
2023-05-12T06:18:37.890Z,101996.25
2023-05-12T06:21:06.397Z,101997.97
2023-05-12T06:23:34.386Z,101999.72
2023-05-12T06:26:03.197Z,102001.47
2023-05-12T06:28:31.144Z,101996.13
2023-05-12T06:30:59.833Z,102003.06
2023-05-12T06:33:27.838Z,102000.38
2023-05-12T06:35:57.528Z,101999.47
2023-05-12T06:38:25.562Z,102007.34
2023-05-12T06:40:53.479Z,102009.97
2023-05-12T06:43:21.479Z,102017.81
2023-05-12T06:45:49.491Z,102016.06
2023-05-12T06:48:17.515Z,102020.44
2023-05-12T06:50:45.421Z,102035.38
2023-05-12T06:53:15.100Z,102028.34
2023-05-12T06:55:44.198Z,102029.22
2023-05-12T06:58:12.264Z,102028.31
2023-05-12T07:00:40.217Z,102028.31
2023-05-12T07:03:10.331Z,102032.66
2023-05-12T07:05:38.645Z,102030.91
2023-05-12T07:08:06.826Z,102032.66
2023-05-12T07:10:36.316Z,102029.13
2023-05-12T07:13:04.305Z,102035.25
2023-05-12T07:15:32.983Z,102039.63
2023-05-12T07:18:01.097Z,102036.06
2023-05-12T07:20:29.114Z,102039.59
2023-05-12T07:22:57.081Z,102038.69
2023-05-12T07:25:25.176Z,102038.69
2023-05-12T07:27:54.849Z,102042.16
2023-05-12T07:30:22.926Z,102037.72
2023-05-12T07:32:50.956Z,102037.66
2023-05-12T07:35:19.279Z,102041.19
2023-05-12T07:37:47.378Z,102039.41
2023-05-12T07:40:15.466Z,102043.75
2023-05-12T07:42:43.519Z,102041.97
2023-05-12T07:45:13.167Z,102047.19
2023-05-12T07:47:41.278Z,102050.66
2023-05-12T07:50:09.472Z,102048.88
2023-05-12T07:52:37.554Z,102053.25
2023-05-12T07:55:05.855Z,102057.59
2023-05-12T07:57:33.892Z,102065.50
2023-05-12T08:00:01.839Z,102061.94
2023-05-12T08:02:31.238Z,102060.13
2023-05-12T08:04:59.382Z,102058.34
2023-05-12T08:07:27.385Z,102057.47
2023-05-12T08:09:55.639Z,102060.94
2023-05-12T08:12:23.590Z,102069.72
2023-05-12T08:14:51.508Z,102067.03
2023-05-12T08:17:19.685Z,102067.03
2023-05-12T08:19:49.111Z,102071.41
2023-05-12T08:22:17.261Z,102067.84
2023-05-12T08:24:45.206Z,102069.59
2023-05-12T08:27:13.233Z,102066.09
2023-05-12T08:29:41.202Z,102073.09
2023-05-12T08:32:09.155Z,102069.53
2023-05-12T08:34:37.185Z,102073.91
2023-05-12T08:37:06.639Z,102072.97
2023-05-12T08:39:34.673Z,102064.16
2023-05-12T08:42:09.375Z,102074.72
2023-05-12T08:44:38.036Z,102067.63
2023-05-12T08:47:06.676Z,102071.06
2023-05-12T08:49:36.313Z,102076.31
2023-05-12T08:52:04.416Z,102069.22
2023-05-12T08:54:36.059Z,102070.09
2023-05-12T08:57:09.402Z,102074.47
2023-05-12T08:59:38.118Z,102077.09
2023-05-12T09:02:06.541Z,102082.34
2023-05-12T09:04:36.791Z,102088.44
2023-05-12T09:07:05.227Z,102084.03
2023-05-12T09:09:34.900Z,102087.47
2023-05-12T09:12:03.111Z,102081.31
2023-05-12T09:14:32.579Z,102083.03
2023-05-12T09:17:02.760Z,102083.00
2023-05-12T09:19:30.748Z,102089.97
2023-05-12T09:21:59.112Z,102093.50
2023-05-12T09:24:36.696Z,102091.78
2023-05-12T09:27:05.021Z,102094.44
2023-05-12T09:29:37.501Z,102093.53
2023-05-12T09:32:10.327Z,102095.25
2023-05-12T09:34:41.351Z,102099.63
2023-05-12T09:37:10.324Z,102093.50
2023-05-12T09:39:39.786Z,102094.41
2023-05-12T09:42:12.805Z,102089.06
2023-05-12T09:44:40.933Z,102088.22
2023-05-12T09:47:10.563Z,102082.03
2023-05-12T09:49:38.627Z,102092.59
2023-05-12T09:52:07.147Z,102085.56
2023-05-12T09:54:35.557Z,102089.94
2023-05-12T09:57:05.738Z,102086.41
2023-05-12T09:59:34.294Z,102083.72
2023-05-12T10:02:02.906Z,102083.66
2023-05-12T10:04:33.726Z,102088.00
2023-05-12T10:07:01.714Z,102086.19
2023-05-12T10:09:34.232Z,102088.84
2023-05-12T10:12:02.175Z,102082.63
2023-05-12T10:14:31.483Z,102082.66
2023-05-12T10:16:59.633Z,102084.41
2023-05-12T10:19:27.588Z,102081.78
2023-05-12T10:21:55.809Z,102082.59
2023-05-12T10:24:23.811Z,102087.88
2023-05-12T10:26:51.724Z,102085.22
2023-05-12T10:29:19.713Z,102086.94
2023-05-12T10:31:49.194Z,102082.47
2023-05-12T10:34:18.700Z,102084.28
2023-05-12T10:36:50.361Z,102086.00
2023-05-12T10:39:19.499Z,102080.72
2023-05-12T10:41:47.428Z,102079.78
2023-05-12T10:44:15.420Z,102083.31
2023-05-12T10:46:43.544Z,102083.25
2023-05-12T10:49:15.558Z,102080.59
2023-05-12T10:51:50.539Z,102082.34
2023-05-12T10:54:22.861Z,102081.44
2023-05-12T10:56:51.281Z,102085.78
2023-05-12T10:59:20.669Z,102076.94
2023-05-12T11:02:00.039Z,102079.53
2023-05-12T11:04:41.539Z,102085.63
2023-05-12T11:07:10.097Z,102085.63
2023-05-12T11:09:45.025Z,102080.28
2023-05-12T11:12:18.679Z,102086.38
2023-05-12T11:14:47.268Z,102084.66
2023-05-12T11:17:15.350Z,102077.66
2023-05-12T11:19:48.060Z,102085.50
2023-05-12T11:22:18.476Z,102083.75
2023-05-12T11:24:47.946Z,102085.50
2023-05-12T11:27:16.546Z,102085.44
2023-05-12T11:29:46.838Z,102086.16
2023-05-12T11:32:16.638Z,102086.03
2023-05-12T11:34:44.575Z,102087.66
2023-05-12T11:37:13.908Z,102090.16
2023-05-12T11:39:42.656Z,102085.66
2023-05-12T11:42:13.469Z,102082.00
2023-05-12T11:44:47.752Z,102075.78
2023-05-12T11:47:16.259Z,102086.25
2023-05-12T11:49:47.859Z,102080.91
2023-05-12T11:52:17.169Z,102084.38
2023-05-12T11:54:49.664Z,102086.94
2023-05-12T11:57:26.138Z,102081.59
2023-05-12T11:59:57.937Z,102090.47
2023-05-12T12:02:26.213Z,102089.66
2023-05-12T12:04:54.646Z,102081.59
2023-05-12T12:07:32.620Z,102081.50
2023-05-12T12:10:00.955Z,102086.75
2023-05-12T12:12:29.108Z,102085.03
2023-05-12T12:15:00.305Z,102089.41
2023-05-12T12:17:30.922Z,102092.03
2023-05-12T12:19:59.180Z,102085.84
2023-05-12T12:24:56.337Z,102088.34
2023-05-12T12:27:24.451Z,102089.13
2023-05-12T12:29:52.398Z,102093.50
2023-05-12T12:32:20.350Z,102092.59
2023-05-12T12:34:49.194Z,102093.47
2023-05-12T12:37:17.714Z,102092.56
2023-05-12T12:39:47.790Z,102087.25
2023-05-12T12:42:17.349Z,102090.69
2023-05-12T12:44:46.117Z,102080.97
2023-05-12T12:47:14.286Z,102082.69
2023-05-12T12:49:42.521Z,102086.16
2023-05-12T12:52:10.492Z,102087.00
2023-05-12T12:54:38.504Z,102083.47
2023-05-12T12:57:06.852Z,102081.66
2023-05-12T12:59:36.200Z,102080.72
2023-05-12T13:02:04.229Z,102085.91
2023-05-12T13:04:32.683Z,102092.03
2023-05-12T13:07:00.675Z,102084.09
2023-05-12T13:09:28.605Z,102077.88
2023-05-12T13:11:56.576Z,102077.81
2023-05-12T13:14:24.961Z,102080.38
2023-05-12T13:16:55.020Z,102080.34
2023-05-12T13:19:23.043Z,102083.84
2023-05-12T13:21:50.986Z,102082.03
2023-05-12T13:24:19.028Z,102082.88
2023-05-12T13:26:47.007Z,102081.06
2023-05-12T13:29:14.945Z,102084.56
2023-05-12T13:31:43.812Z,102080.09
2023-05-12T13:34:13.706Z,102080.94
2023-05-12T13:36:41.720Z,102079.09
2023-05-12T13:39:10.199Z,102070.22
2023-05-12T13:41:38.299Z,102079.88
2023-05-12T13:44:06.250Z,102072.78
2023-05-12T13:46:34.218Z,102073.63
2023-05-12T13:49:02.738Z,102069.16
2023-05-12T13:51:32.450Z,102065.56
2023-05-12T13:54:00.369Z,102069.03
2023-05-12T13:56:28.365Z,102068.09
2023-05-12T13:58:56.320Z,102066.31
2023-05-12T14:01:24.368Z,102066.25
2023-05-12T14:03:52.297Z,102067.06
2023-05-12T14:06:20.336Z,102071.38
2023-05-12T14:08:49.704Z,102074.00
2023-05-12T14:11:17.980Z,102066.00
2023-05-12T14:13:46.993Z,102057.06
2023-05-12T14:16:15.326Z,102060.44
2023-05-12T14:18:43.824Z,102073.38
2023-05-12T14:21:11.983Z,102061.56
2023-05-12T14:23:39.948Z,102065.38
2023-05-12T14:26:09.237Z,102059.88
2023-05-12T14:28:38.821Z,102065.50
2023-05-12T14:31:06.938Z,102073.16
2023-05-12T14:33:34.913Z,102061.09
2023-05-12T14:36:07.400Z,102067.94
2023-05-12T14:38:36.827Z,102068.16
2023-05-12T14:41:05.393Z,102071.56
2023-05-12T14:43:34.695Z,102058.22
2023-05-12T14:46:02.644Z,102069.00
2023-05-12T14:48:30.645Z,102064.81
2023-05-12T14:50:58.663Z,102064.25
2023-05-12T14:53:29.714Z,102068.13
2023-05-12T14:55:57.624Z,102069.31
2023-05-12T14:58:25.608Z,102064.34
2023-05-12T15:00:55.255Z,102058.66
2023-05-12T15:03:23.721Z,102069.69
2023-05-12T15:08:22.520Z,102070.28
2023-05-12T15:10:50.507Z,102067.81
2023-05-12T15:13:20.436Z,102071.81
2023-05-12T15:15:48.632Z,102071.78
2023-05-12T15:18:18.398Z,102062.75
2023-05-12T15:20:46.501Z,102068.38
2023-05-12T15:23:14.468Z,102061.13
2023-05-12T15:25:42.663Z,102066.66
2023-05-12T15:28:10.646Z,102067.69
2023-05-12T15:30:38.733Z,102069.00
2023-05-12T15:33:07.031Z,102071.44
2023-05-12T15:35:36.653Z,102060.41
2023-05-12T15:38:04.597Z,102069.72
2023-05-12T15:40:32.934Z,102060.16
2023-05-12T15:43:00.823Z,102071.84
2023-05-12T15:45:28.745Z,102070.22
2023-05-12T15:47:56.807Z,102065.50
2023-05-12T15:50:24.870Z,102067.53
2023-05-12T15:52:54.199Z,102074.88
2023-05-12T15:55:22.492Z,102070.63
2023-05-12T15:57:51.017Z,102069.81
2023-05-12T16:00:20.399Z,102066.19
2023-05-12T16:02:49.874Z,102077.59
2023-05-12T16:05:18.336Z,102068.03
2023-05-12T16:07:46.382Z,102072.59
2023-05-12T16:10:15.776Z,102064.75
2023-05-12T16:12:43.734Z,102071.88
2023-05-12T16:15:12.743Z,102071.91
2023-05-12T16:17:41.299Z,102075.50
2023-05-12T16:20:10.416Z,102063.22
2023-05-12T16:22:38.909Z,102067.72
2023-05-12T16:25:07.532Z,102071.28
2023-05-12T16:27:36.945Z,102063.38
2023-05-12T16:30:05.337Z,102064.25
2023-05-12T16:32:33.395Z,102065.97
2023-05-12T16:35:01.280Z,102061.53
2023-05-12T16:37:29.215Z,102065.16
2023-05-12T16:39:57.227Z,102060.78
2023-05-12T16:42:25.381Z,102063.47
2023-05-12T16:44:55.732Z,102059.09
2023-05-12T16:47:23.843Z,102054.59
2023-05-12T16:49:53.313Z,102053.63
2023-05-12T16:52:21.281Z,102060.59
2023-05-12T16:54:49.220Z,102057.88
2023-05-12T16:57:17.171Z,102059.59
2023-05-12T16:59:45.095Z,102062.25
2023-05-12T17:02:14.544Z,102060.47
2023-05-12T17:04:42.630Z,102060.44
2023-05-12T17:07:10.529Z,102063.00
2023-05-12T17:09:38.533Z,102064.75
2023-05-12T17:12:08.009Z,102068.22
2023-05-12T17:14:36.012Z,102066.41
2023-05-12T17:17:04.794Z,102069.09
2023-05-12T17:19:34.703Z,102072.59
2023-05-12T17:22:02.728Z,102070.84
2023-05-12T17:24:30.713Z,102072.50
2023-05-12T17:26:58.835Z,102078.69
2023-05-12T17:29:26.832Z,102079.47
2023-05-12T17:31:54.963Z,102071.41
2023-05-12T17:34:23.043Z,102077.44
2023-05-12T17:36:52.358Z,102081.78
2023-05-12T17:39:20.425Z,102081.69
2023-05-12T17:41:48.370Z,102088.66
2023-05-12T17:44:16.397Z,102086.81
2023-05-12T17:46:44.520Z,102086.78
2023-05-12T17:49:12.513Z,102096.47
2023-05-12T17:51:41.884Z,102096.47
2023-05-12T17:54:11.174Z,102098.16
2023-05-12T17:56:39.121Z,102100.81
2023-05-12T17:59:07.080Z,102100.81
2023-05-12T18:01:35.157Z,102106.09
2023-05-12T18:04:03.140Z,102101.69
2023-05-12T18:06:32.089Z,102117.63
2023-05-12T18:09:00.044Z,102114.19
2023-05-12T18:11:29.706Z,102107.06
2023-05-12T18:13:58.617Z,102109.78
2023-05-12T18:16:29.403Z,102114.28
2023-05-12T18:18:57.764Z,102120.50
2023-05-12T18:21:25.810Z,102109.97
2023-05-12T18:23:53.769Z,102117.97
2023-05-12T18:26:21.886Z,102118.94
2023-05-12T18:28:51.616Z,102123.44
2023-05-12T18:31:20.118Z,102131.44
2023-05-12T18:33:48.555Z,102133.28
2023-05-12T18:36:17.036Z,102135.16
2023-05-12T18:38:44.959Z,102140.53
2023-05-12T18:41:12.912Z,102140.66
2023-05-12T18:43:43.071Z,102143.41
2023-05-12T18:46:12.845Z,102145.28
2023-05-12T18:48:40.923Z,102144.53
2023-05-12T18:51:09.571Z,102152.63
2023-05-12T18:53:37.569Z,102151.00
2023-05-12T18:56:05.732Z,102149.34
2023-05-12T18:58:33.768Z,102160.06
2023-05-12T19:01:02.142Z,102161.09
2023-05-12T19:03:32.189Z,102162.06
2023-05-12T19:06:00.161Z,102169.22
2023-05-12T19:08:28.194Z,102164.06
2023-05-12T19:10:56.183Z,102178.25
2023-05-12T19:13:27.115Z,102177.47
2023-05-12T19:15:55.084Z,102172.25
2023-05-12T19:18:23.327Z,102174.06
2023-05-12T19:20:52.686Z,102174.16
2023-05-12T19:23:20.669Z,102184.06
2023-05-12T19:25:48.609Z,102178.97
2023-05-12T19:28:16.574Z,102182.72
2023-05-12T19:30:44.436Z,102180.31
2023-05-12T19:33:13.562Z,102182.28
2023-05-12T19:35:42.158Z,102183.41
2023-05-12T19:38:11.522Z,102184.41
2023-05-12T19:40:39.501Z,102187.19
2023-05-12T19:43:10.038Z,102188.28
2023-05-12T19:45:38.004Z,102192.81
2023-05-12T19:48:06.350Z,102186.81
2023-05-12T19:50:34.338Z,102195.69
2023-05-12T19:53:02.313Z,102195.84
2023-05-12T19:55:31.676Z,102197.72
2023-05-12T19:58:01.920Z,102197.84
2023-05-12T20:00:29.955Z,102209.41
2023-05-12T20:02:58.070Z,102198.06
2023-05-12T20:05:26.370Z,102206.97
2023-05-12T20:07:54.229Z,102205.28
2023-05-12T20:10:22.185Z,102206.25
2023-05-12T20:12:51.654Z,102211.59
2023-05-12T20:15:19.927Z,102205.53
2023-05-12T20:17:48.059Z,102213.47
2023-05-12T20:20:16.026Z,102217.06
2023-05-12T20:22:44.326Z,102212.72
2023-05-12T20:25:16.008Z,102221.56
2023-05-12T20:27:44.005Z,102224.25
2023-05-12T20:30:14.167Z,102221.66
2023-05-12T20:32:43.624Z,102224.38
2023-05-12T20:35:11.601Z,102220.91
2023-05-12T20:37:40.749Z,102222.72
2023-05-12T20:40:10.798Z,102227.16
2023-05-12T20:42:38.700Z,102221.00
2023-05-12T20:45:07.765Z,102228.97
2023-05-12T20:47:37.493Z,102229.91
2023-05-12T20:50:06.307Z,102224.63
2023-05-12T20:52:34.311Z,102227.28
2023-05-12T20:55:02.318Z,102235.22
2023-05-12T20:57:30.298Z,102230.06
2023-05-12T20:59:58.239Z,102231.81
2023-05-12T21:02:26.988Z,102231.81
2023-05-12T21:04:56.445Z,102232.75
2023-05-12T21:07:24.431Z,102234.56
2023-05-12T21:09:52.456Z,102234.59
2023-05-12T21:12:20.428Z,102227.59
2023-05-12T21:14:48.525Z,102232.88
2023-05-12T21:17:17.367Z,102240.84
2023-05-12T21:19:45.460Z,102238.25
2023-05-12T21:22:14.774Z,102238.25
2023-05-12T21:24:42.980Z,102240.06
2023-05-12T21:27:11.574Z,102244.50
2023-05-12T21:29:39.542Z,102242.72
2023-05-12T21:32:08.237Z,102243.66
2023-05-12T21:34:36.614Z,102241.03
2023-05-12T21:37:04.618Z,102244.63
2023-05-12T21:39:33.945Z,102251.72
2023-05-12T21:42:01.952Z,102244.66
2023-05-12T21:44:29.866Z,102249.13
2023-05-12T21:46:58.708Z,102256.13
2023-05-12T21:49:26.879Z,102246.50
2023-05-12T21:51:56.146Z,102250.03
2023-05-12T21:54:24.131Z,102257.19
2023-05-12T21:56:53.469Z,102243.91
2023-05-12T21:59:21.755Z,102243.97
2023-05-12T22:01:49.965Z,102242.25
2023-05-12T22:04:17.995Z,102250.19
2023-05-12T22:06:45.929Z,102243.13
2023-05-12T22:09:13.832Z,102249.31
2023-05-12T22:11:42.058Z,102252.88
2023-05-12T22:14:11.336Z,102247.59
2023-05-12T22:16:42.210Z,102251.16
2023-05-12T22:19:10.832Z,102250.28
2023-05-12T22:21:38.913Z,102252.06
2023-05-12T22:24:07.501Z,102252.13
2023-05-12T22:26:35.471Z,102253.03
2023-05-12T22:29:03.356Z,102259.22
2023-05-12T22:31:32.730Z,102263.63
2023-05-12T22:34:00.804Z,102263.63
2023-05-12T22:36:28.751Z,102270.72
2023-05-12T22:38:56.639Z,102267.19
2023-05-12T22:41:24.729Z,102270.75
2023-05-12T22:43:52.722Z,102271.66
2023-05-12T22:46:20.645Z,102273.41
2023-05-12T22:48:50.916Z,102265.50
2023-05-12T22:51:18.823Z,102272.53
2023-05-12T22:53:46.771Z,102276.09
2023-05-12T22:56:14.669Z,102273.50
2023-05-12T22:58:42.708Z,102274.41
2023-05-12T23:01:10.808Z,102273.50
2023-05-12T23:03:38.933Z,102274.41
2023-05-12T23:06:08.604Z,102280.56
2023-05-12T23:08:36.527Z,102268.25
2023-05-12T23:11:04.400Z,102271.81
2023-05-12T23:13:32.368Z,102275.38
2023-05-12T23:16:00.274Z,102271.00
2023-05-12T23:18:28.226Z,102278.97
2023-05-12T23:20:56.159Z,102277.16
2023-05-12T23:23:25.454Z,102267.50
2023-05-12T23:25:53.468Z,102271.06
2023-05-12T23:28:21.366Z,102273.69
2023-05-12T23:30:49.271Z,102278.13
2023-05-12T23:33:17.338Z,102279.91
2023-05-12T23:35:45.308Z,102272.91
2023-05-12T23:38:13.213Z,102275.53
2023-05-12T23:40:42.513Z,102272.91
2023-05-12T23:43:10.436Z,102273.78
2023-05-12T23:45:38.399Z,102271.19
2023-05-12T23:48:06.861Z,102271.19
2023-05-12T23:50:34.776Z,102273.84
2023-05-12T23:53:02.727Z,102268.59
2023-05-12T23:55:30.673Z,102271.28
2023-05-12T23:58:00.226Z,102277.44
